createdAt,value
2022-08-04T00:01:04.003Z,24.32
2022-08-04T00:04:04.536Z,24.21
2022-08-04T00:07:09.095Z,24.29
2022-08-04T00:10:07.262Z,24.50
2022-08-04T00:13:05.599Z,24.34
2022-08-04T00:16:07.206Z,24.02
2022-08-04T00:19:08.035Z,23.75
2022-08-04T00:22:05.700Z,23.70
2022-08-04T00:25:03.225Z,23.59
2022-08-04T00:28:00.918Z,23.48
2022-08-04T00:30:57.546Z,23.54
2022-08-04T00:33:56.975Z,23.69
2022-08-04T00:36:54.256Z,23.70
2022-08-04T00:39:52.687Z,23.76
2022-08-04T00:43:00.103Z,23.75
2022-08-04T00:46:12.503Z,24.00
2022-08-04T00:49:32.505Z,23.75
2022-08-04T00:52:34.127Z,23.67
2022-08-04T00:56:02.608Z,23.55
2022-08-04T00:59:04.131Z,23.46
2022-08-04T01:02:25.103Z,23.36
2022-08-04T01:05:37.655Z,23.16
2022-08-04T01:08:59.741Z,23.01
2022-08-04T01:12:09.528Z,22.89
2022-08-04T01:15:08.100Z,22.83
2022-08-04T01:18:06.264Z,22.78
2022-08-04T01:21:21.805Z,22.73
2022-08-04T01:24:43.476Z,22.80
2022-08-04T01:28:02.544Z,22.86
2022-08-04T01:31:07.342Z,22.82
2022-08-04T01:34:12.468Z,22.71
2022-08-04T01:37:16.894Z,22.69
2022-08-04T01:40:14.407Z,22.74
2022-08-04T01:43:11.659Z,22.79
2022-08-04T01:46:11.176Z,22.71
2022-08-04T01:49:08.614Z,22.60
2022-08-04T01:52:08.276Z,22.67
2022-08-04T01:55:09.432Z,22.72
2022-08-04T01:58:07.211Z,22.80
2022-08-04T02:01:06.642Z,22.82
2022-08-04T02:04:21.788Z,22.82
2022-08-04T02:07:28.501Z,22.81
2022-08-04T02:10:51.571Z,22.78
2022-08-04T02:14:00.139Z,22.75
2022-08-04T02:16:56.913Z,22.68
2022-08-04T02:20:10.165Z,22.61
2022-08-04T02:23:09.082Z,22.48
2022-08-04T02:26:22.355Z,22.45
2022-08-04T02:29:21.758Z,22.42
2022-08-04T02:32:22.246Z,22.48
2022-08-04T02:35:26.581Z,22.52
2022-08-04T02:38:32.343Z,22.54
2022-08-04T02:41:30.734Z,22.58
2022-08-04T02:44:28.232Z,22.66
2022-08-04T02:48:28.837Z,22.69
2022-08-04T02:50:42.910Z,22.68
2022-08-04T02:53:40.468Z,22.63
2022-08-04T02:56:38.882Z,22.50
2022-08-04T03:00:12.962Z,22.41
2022-08-04T03:03:33.170Z,22.34
2022-08-04T03:06:53.664Z,22.31
2022-08-04T03:10:12.483Z,22.35
2022-08-04T03:13:34.265Z,22.45
2022-08-04T03:16:50.935Z,22.53
2022-08-04T03:19:56.651Z,22.74
2022-08-04T03:23:14.241Z,22.82
2022-08-04T03:26:30.424Z,22.97
2022-08-04T03:29:49.505Z,23.09
2022-08-04T03:33:24.791Z,23.03
2022-08-04T03:36:54.398Z,22.92
2022-08-04T03:40:10.882Z,22.86
2022-08-04T03:43:57.954Z,22.65
2022-08-04T03:47:09.831Z,22.54
2022-08-04T03:50:41.600Z,22.62
2022-08-04T03:53:44.470Z,22.69
2022-08-04T03:56:51.079Z,22.62
2022-08-04T04:00:04.987Z,22.67
2022-08-04T04:03:53.506Z,22.73
2022-08-04T04:07:14.320Z,22.81
2022-08-04T04:10:28.917Z,22.84
2022-08-04T04:13:49.311Z,22.90
2022-08-04T04:16:58.116Z,22.88
2022-08-04T04:20:05.839Z,22.87
2022-08-04T04:23:34.860Z,22.90
2022-08-04T04:26:59.416Z,22.87
2022-08-04T04:30:16.598Z,22.81
2022-08-04T04:33:35.549Z,22.78
2022-08-04T04:37:10.925Z,22.77
2022-08-04T04:40:14.342Z,22.78
2022-08-04T04:43:51.413Z,22.83
2022-08-04T04:47:05.299Z,22.94
2022-08-04T04:50:36.751Z,23.07
2022-08-04T04:53:59.913Z,23.25
2022-08-04T04:56:58.121Z,23.38
2022-08-04T05:00:05.852Z,23.37
2022-08-04T05:03:15.165Z,23.32
2022-08-04T05:06:37.605Z,23.30
2022-08-04T05:10:05.776Z,23.31
2022-08-04T05:14:37.361Z,23.29
2022-08-04T05:16:44.879Z,23.33
2022-08-04T05:20:04.049Z,23.37
2022-08-04T05:23:14.260Z,23.41
2022-08-04T05:26:12.759Z,23.51
2022-08-04T05:29:12.168Z,23.56
2022-08-04T05:32:13.417Z,23.60
2022-08-04T05:35:12.845Z,23.71
2022-08-04T05:38:11.126Z,23.78
2022-08-04T05:41:08.467Z,23.91
2022-08-04T05:44:05.799Z,24.06
2022-08-04T05:47:03.886Z,24.17
2022-08-04T05:50:05.238Z,24.27
2022-08-04T05:53:01.943Z,24.43
2022-08-04T05:55:59.951Z,24.66
2022-08-04T05:58:57.309Z,24.92
2022-08-04T06:01:57.764Z,25.03
2022-08-04T06:04:54.981Z,25.06
2022-08-04T06:08:07.726Z,25.04
2022-08-04T06:11:09.430Z,25.06
2022-08-04T06:14:09.019Z,25.01
2022-08-04T06:18:33.110Z,25.08
2022-08-04T06:20:27.465Z,25.25
2022-08-04T06:23:29.215Z,25.37
2022-08-04T06:26:26.238Z,25.46
2022-08-04T06:29:28.220Z,25.53
2022-08-04T06:32:35.474Z,25.50
2022-08-04T06:35:35.408Z,25.50
2022-08-04T06:38:32.518Z,25.57
2022-08-04T06:41:30.272Z,25.68
2022-08-04T06:44:27.307Z,25.71
2022-08-04T06:47:24.195Z,25.76
2022-08-04T06:51:26.757Z,25.84
2022-08-04T06:53:38.056Z,26.16
2022-08-04T06:56:35.407Z,26.25
2022-08-04T06:59:32.236Z,26.39
2022-08-04T07:02:30.562Z,26.76
2022-08-04T07:05:28.242Z,26.95
2022-08-04T07:08:24.869Z,27.04
2022-08-04T07:11:22.285Z,26.99
2022-08-04T07:14:19.062Z,27.05
2022-08-04T07:17:16.930Z,27.12
2022-08-04T07:20:15.472Z,27.24
2022-08-04T07:23:31.217Z,27.34
2022-08-04T07:26:29.418Z,27.41
2022-08-04T07:29:27.606Z,27.69
2022-08-04T07:32:25.216Z,27.93
2022-08-04T07:36:04.546Z,28.01
2022-08-04T07:38:46.366Z,27.87
2022-08-04T07:41:49.003Z,27.86
2022-08-04T07:44:46.488Z,28.17
2022-08-04T07:48:05.034Z,28.20
2022-08-04T07:51:01.442Z,28.16
2022-08-04T07:53:58.521Z,28.14
2022-08-04T07:56:55.823Z,28.31
2022-08-04T07:59:53.261Z,28.33
2022-08-04T08:02:50.662Z,28.44
2022-08-04T08:06:17.683Z,28.52
2022-08-04T08:09:15.976Z,28.82
2022-08-04T08:12:36.220Z,28.95
2022-08-04T08:15:31.320Z,28.88
2022-08-04T08:18:28.323Z,28.88
2022-08-04T08:21:25.076Z,28.82
2022-08-04T08:24:22.238Z,28.99
2022-08-04T08:27:19.644Z,29.07
2022-08-04T08:30:17.450Z,29.18
2022-08-04T08:33:15.283Z,29.34
2022-08-04T08:36:26.331Z,29.18
2022-08-04T08:39:29.257Z,29.07
2022-08-04T08:42:33.706Z,29.09
2022-08-04T08:46:08.911Z,29.03
2022-08-04T08:50:02.515Z,29.26
2022-08-04T08:52:56.186Z,29.44
2022-08-04T08:56:35.089Z,29.52
2022-08-04T08:59:59.365Z,29.80
2022-08-04T09:03:14.469Z,29.73
2022-08-04T09:06:46.142Z,29.78
2022-08-04T09:10:04.661Z,30.11
2022-08-04T09:13:11.317Z,30.28
2022-08-04T09:16:15.697Z,30.18
2022-08-04T09:19:38.141Z,30.30
2022-08-04T09:22:50.475Z,30.57
2022-08-04T09:25:51.851Z,30.73
2022-08-04T09:29:07.632Z,30.76
2022-08-04T09:32:11.514Z,30.75
2022-08-04T09:35:38.589Z,30.91
2022-08-04T09:38:42.576Z,31.31
2022-08-04T09:42:00.249Z,31.20
2022-08-04T09:45:06.499Z,31.54
2022-08-04T09:48:08.634Z,31.67
2022-08-04T09:51:17.200Z,31.48
2022-08-04T09:54:30.962Z,31.80
2022-08-04T09:57:31.451Z,31.72
2022-08-04T10:00:40.947Z,31.90
2022-08-04T10:03:40.642Z,32.08
2022-08-04T10:07:18.727Z,32.27
2022-08-04T10:10:50.206Z,32.21
2022-08-04T10:14:05.461Z,32.27
2022-08-04T10:17:15.291Z,32.36
2022-08-04T10:20:33.967Z,32.35
2022-08-04T10:24:00.185Z,32.37
2022-08-04T10:27:01.835Z,32.43
2022-08-04T10:30:12.202Z,32.67
2022-08-04T10:33:37.692Z,32.91
2022-08-04T10:36:48.759Z,32.58
2022-08-04T10:40:11.492Z,32.64
2022-08-04T10:43:20.871Z,32.83
2022-08-04T10:46:27.175Z,32.78
2022-08-04T10:49:33.302Z,32.84
2022-08-04T10:52:38.913Z,32.74
2022-08-04T10:56:07.679Z,32.49
2022-08-04T10:59:13.142Z,32.83
2022-08-04T11:02:36.695Z,33.13
2022-08-04T11:05:43.951Z,33.37
2022-08-04T11:08:46.702Z,33.39
2022-08-04T11:12:21.878Z,33.77
2022-08-04T11:15:22.394Z,33.70
2022-08-04T11:18:33.434Z,33.81
2022-08-04T11:21:33.458Z,33.90
2022-08-04T11:24:59.571Z,33.77
2022-08-04T11:28:58.475Z,33.83
2022-08-04T11:32:01.478Z,33.97
2022-08-04T11:35:02.186Z,33.84
2022-08-04T11:38:08.134Z,34.08
2022-08-04T11:41:13.395Z,34.16
2022-08-04T11:44:15.813Z,34.05
2022-08-04T11:47:24.640Z,34.26
2022-08-04T11:50:38.459Z,34.09
2022-08-04T11:53:36.915Z,33.68
2022-08-04T11:56:37.230Z,33.52
2022-08-04T11:59:36.116Z,33.58
2022-08-04T12:02:52.322Z,33.51
2022-08-04T12:06:14.771Z,33.20
2022-08-04T12:09:27.794Z,32.99
2022-08-04T12:12:51.238Z,32.85
2022-08-04T12:15:58.232Z,32.90
2022-08-04T12:19:01.647Z,33.08
2022-08-04T12:22:03.726Z,33.15
2022-08-04T12:25:14.364Z,33.21
2022-08-04T12:28:19.009Z,33.41
2022-08-04T12:31:41.089Z,33.48
2022-08-04T12:34:43.595Z,33.38
2022-08-04T12:37:53.547Z,33.40
2022-08-04T12:40:51.780Z,33.52
2022-08-04T12:43:50.319Z,33.50
2022-08-04T12:46:47.576Z,33.33
2022-08-04T12:49:47.378Z,33.29
2022-08-04T12:53:02.667Z,33.30
2022-08-04T12:56:02.096Z,33.07
2022-08-04T12:59:12.777Z,32.95
2022-08-04T13:02:17.494Z,32.71
2022-08-04T13:05:17.124Z,32.54
2022-08-04T13:08:15.520Z,32.42
2022-08-04T13:11:12.591Z,32.34
2022-08-04T13:14:26.021Z,32.22
2022-08-04T13:17:28.131Z,31.84
2022-08-04T13:20:32.875Z,30.96
2022-08-04T13:24:10.703Z,29.79
2022-08-04T13:26:58.478Z,29.09
2022-08-04T13:30:24.521Z,27.30
2022-08-04T13:33:20.119Z,25.94
2022-08-04T13:36:18.115Z,25.97
2022-08-04T13:39:18.875Z,26.11
2022-08-04T13:42:16.970Z,26.16
2022-08-04T13:45:14.450Z,26.00
2022-08-04T13:48:31.662Z,26.17
2022-08-04T13:51:57.412Z,26.29
2022-08-04T13:54:47.036Z,26.47
2022-08-04T13:57:45.243Z,26.30
2022-08-04T14:01:03.003Z,25.98
2022-08-04T14:04:06.143Z,26.02
2022-08-04T14:07:20.853Z,26.24
2022-08-04T14:10:19.267Z,26.38
2022-08-04T14:13:16.987Z,26.44
2022-08-04T14:16:19.228Z,26.35
2022-08-04T14:19:16.529Z,25.93
2022-08-04T14:22:26.466Z,25.85
2022-08-04T14:25:26.553Z,26.07
2022-08-04T14:29:25.857Z,26.22
2022-08-04T14:31:57.826Z,26.45
2022-08-04T14:34:56.399Z,26.58
2022-08-04T14:37:56.478Z,26.59
2022-08-04T14:40:53.674Z,26.46
2022-08-04T14:43:51.837Z,26.06
2022-08-04T14:46:53.105Z,26.08
2022-08-04T14:49:55.257Z,26.65
2022-08-04T14:52:52.682Z,26.62
2022-08-04T14:55:53.803Z,26.46
2022-08-04T14:59:07.050Z,26.90
2022-08-04T15:02:04.702Z,27.21
2022-08-04T15:06:01.959Z,27.34
2022-08-04T15:08:18.690Z,27.42
2022-08-04T15:11:22.999Z,27.41
2022-08-04T15:14:37.438Z,27.17
2022-08-04T15:17:35.739Z,27.13
2022-08-04T15:20:32.679Z,27.24
2022-08-04T15:23:38.649Z,27.39
2022-08-04T15:26:51.576Z,27.54
2022-08-04T15:29:59.319Z,27.58
2022-08-04T15:33:01.498Z,27.55
2022-08-04T15:36:33.839Z,27.60
2022-08-04T15:40:08.757Z,27.55
2022-08-04T15:43:16.731Z,27.53
2022-08-04T15:46:44.370Z,27.64
2022-08-04T15:49:30.982Z,27.59
2022-08-04T15:52:31.997Z,27.58
2022-08-04T15:55:36.512Z,27.42
2022-08-04T15:58:49.219Z,27.60
2022-08-04T16:02:11.590Z,27.55
2022-08-04T16:05:18.514Z,27.62
2022-08-04T16:08:16.157Z,27.60
2022-08-04T16:11:36.857Z,27.60
2022-08-04T16:14:35.840Z,27.57
2022-08-04T16:17:32.809Z,27.56
2022-08-04T16:20:29.572Z,27.73
2022-08-04T16:23:55.140Z,27.91
2022-08-04T16:26:57.357Z,27.90
2022-08-04T16:30:03.471Z,27.86
2022-08-04T16:33:00.603Z,27.99
2022-08-04T16:36:07.780Z,28.11
2022-08-04T16:39:07.887Z,28.05
2022-08-04T16:42:30.231Z,28.03
2022-08-04T16:45:40.102Z,28.06
2022-08-04T16:48:37.824Z,28.00
2022-08-04T16:51:34.771Z,27.86
2022-08-04T16:54:32.676Z,27.78
2022-08-04T16:57:29.496Z,27.73
2022-08-04T17:00:31.475Z,27.69
2022-08-04T17:03:28.713Z,27.73
2022-08-04T17:06:25.685Z,27.85
2022-08-04T17:09:28.396Z,27.71
2022-08-04T17:12:29.054Z,27.64
2022-08-04T17:15:26.927Z,27.75
2022-08-04T17:18:27.960Z,27.46
2022-08-04T17:21:29.541Z,27.52
2022-08-04T17:24:26.493Z,27.68
2022-08-04T17:30:40.643Z,27.37
2022-08-04T17:33:55.058Z,27.23
2022-08-04T17:37:03.030Z,27.31
2022-08-04T17:40:22.425Z,27.12
2022-08-04T17:44:05.007Z,27.25
2022-08-04T17:46:45.426Z,27.51
2022-08-04T17:49:53.100Z,27.56
2022-08-04T17:53:12.030Z,27.73
2022-08-04T17:56:32.901Z,27.56
2022-08-04T17:59:52.903Z,27.39
2022-08-04T18:02:57.156Z,27.28
2022-08-04T18:06:03.462Z,27.30
2022-08-04T18:09:22.695Z,27.37
2022-08-04T18:12:25.527Z,27.02
2022-08-04T18:15:23.099Z,26.86
2022-08-04T18:18:23.725Z,27.03
2022-08-04T18:21:20.728Z,27.15
2022-08-04T18:24:19.109Z,27.11
2022-08-04T18:27:32.322Z,27.13
2022-08-04T18:30:36.513Z,27.16
2022-08-04T18:33:57.198Z,27.32
2022-08-04T18:36:59.031Z,27.46
2022-08-04T18:40:17.423Z,27.31
2022-08-04T18:43:14.377Z,27.04
2022-08-04T18:46:15.145Z,26.95
2022-08-04T18:51:01.541Z,26.82
2022-08-04T18:52:31.088Z,26.55
2022-08-04T18:55:56.013Z,26.39
2022-08-04T18:58:46.704Z,26.32
2022-08-04T19:02:13.231Z,26.32
2022-08-04T19:05:02.669Z,26.35
2022-08-04T19:08:01.980Z,26.22
2022-08-04T19:11:54.176Z,26.12
2022-08-04T19:14:34.752Z,26.20
2022-08-04T19:17:52.598Z,26.14
2022-08-04T19:20:49.789Z,26.07
2022-08-04T19:24:23.487Z,25.95
2022-08-04T19:27:07.023Z,25.86
2022-08-04T19:30:05.845Z,25.97
2022-08-04T19:33:02.768Z,25.93
2022-08-04T19:36:04.721Z,25.83
2022-08-04T19:39:11.573Z,25.97
2022-08-04T19:42:08.742Z,25.98
2022-08-04T19:45:15.821Z,25.74
2022-08-04T19:48:18.626Z,25.71
2022-08-04T19:51:20.282Z,25.72
2022-08-04T19:54:27.287Z,26.04
2022-08-04T19:57:32.369Z,26.20
2022-08-04T20:00:34.394Z,26.13
2022-08-04T20:04:10.408Z,26.09
2022-08-04T20:06:50.167Z,25.94
2022-08-04T20:09:53.697Z,25.93
2022-08-04T20:12:55.567Z,25.90
2022-08-04T20:15:57.405Z,25.78
2022-08-04T20:22:50.639Z,25.68
2022-08-04T20:25:36.343Z,25.43
2022-08-04T20:28:36.507Z,25.32
2022-08-04T20:31:33.695Z,25.26
2022-08-04T20:34:41.497Z,25.20
2022-08-04T20:37:55.530Z,25.21
2022-08-04T20:41:00.217Z,25.12
2022-08-04T20:43:58.679Z,25.07
2022-08-04T20:46:55.688Z,25.07
2022-08-04T20:49:52.756Z,24.97
2022-08-04T20:52:49.721Z,24.93
2022-08-04T20:55:55.907Z,24.88
2022-08-04T20:58:52.509Z,24.91
2022-08-04T21:01:53.857Z,24.97
2022-08-04T21:04:51.191Z,25.10
2022-08-04T21:07:48.956Z,24.94
2022-08-04T21:10:47.455Z,24.66
2022-08-04T21:13:52.137Z,24.38
2022-08-04T21:16:55.520Z,24.40
2022-08-04T21:19:54.106Z,24.39
2022-08-04T21:22:50.953Z,24.51
2022-08-04T21:25:55.371Z,24.70
2022-08-04T21:28:55.254Z,24.64
2022-08-04T21:31:54.000Z,24.35
2022-08-04T21:34:54.528Z,24.23
2022-08-04T21:37:57.828Z,24.29
2022-08-04T21:41:01.897Z,23.95
2022-08-04T21:43:59.163Z,23.90
2022-08-04T21:46:56.166Z,23.79
2022-08-04T21:49:56.341Z,23.94
2022-08-04T21:52:55.559Z,24.09
2022-08-04T21:56:05.112Z,23.83
2022-08-04T21:59:11.042Z,23.74
2022-08-04T22:02:11.007Z,23.53
2022-08-04T22:05:08.154Z,23.32
2022-08-04T22:08:05.888Z,23.15
2022-08-04T22:11:02.839Z,22.84
2022-08-04T22:14:11.660Z,23.06
2022-08-04T22:17:13.370Z,23.10
2022-08-04T22:20:27.898Z,22.96
2022-08-04T22:23:25.962Z,23.02
2022-08-04T22:26:26.629Z,22.99
2022-08-04T22:29:23.807Z,23.22
2022-08-04T22:32:21.252Z,23.19
2022-08-04T22:35:36.063Z,23.02
2022-08-04T22:38:50.355Z,22.89
2022-08-04T22:42:03.766Z,22.57
2022-08-04T22:45:00.982Z,22.86
2022-08-04T22:47:57.871Z,23.13
2022-08-04T22:50:56.121Z,23.01
2022-08-04T22:53:53.059Z,22.76
2022-08-04T22:56:50.191Z,22.64
2022-08-04T22:59:49.907Z,22.52
2022-08-04T23:02:48.498Z,22.73
2022-08-04T23:05:48.209Z,22.87
2022-08-04T23:08:48.581Z,22.86
2022-08-04T23:11:50.507Z,22.43
2022-08-04T23:14:58.231Z,22.34
2022-08-04T23:17:55.641Z,22.24
2022-08-04T23:20:52.770Z,22.25
2022-08-04T23:24:00.711Z,22.52
2022-08-04T23:27:00.368Z,22.61
2022-08-04T23:29:56.733Z,23.15
2022-08-04T23:33:08.810Z,22.92
2022-08-04T23:36:07.893Z,22.39
2022-08-04T23:39:42.251Z,22.36
2022-08-04T23:42:45.463Z,22.10
2022-08-04T23:46:07.831Z,21.91
2022-08-04T23:49:08.567Z,22.23
2022-08-04T23:52:29.681Z,22.86
2022-08-04T23:55:47.007Z,22.77
2022-08-04T23:58:46.956Z,22.71
